createdAt,value
2023-04-24T00:01:43.988Z,23.52
2023-04-24T00:04:12.172Z,20.77
2023-04-24T00:06:43.782Z,22.80
2023-04-24T00:09:11.556Z,20.73
2023-04-24T00:11:39.046Z,23.58
2023-04-24T00:14:06.218Z,23.05
2023-04-24T00:16:33.402Z,22.30
2023-04-24T00:19:01.875Z,20.95
2023-04-24T00:21:29.106Z,20.52
2023-04-24T00:23:56.226Z,19.98
2023-04-24T00:26:24.250Z,22.63
2023-04-24T00:28:54.606Z,22.05
2023-04-24T00:31:22.738Z,19.60
2023-04-24T00:33:50.032Z,22.13
2023-04-24T00:36:17.653Z,20.33
2023-04-24T00:38:45.945Z,19.17
2023-04-24T00:41:13.889Z,18.23
2023-04-24T00:43:41.101Z,19.20
2023-04-24T00:46:08.511Z,21.42
2023-04-24T00:48:36.051Z,20.88
2023-04-24T00:51:03.900Z,18.48
2023-04-24T00:53:31.036Z,21.75
2023-04-24T00:55:59.070Z,19.52
2023-04-24T00:58:26.837Z,17.38
2023-04-24T01:00:55.285Z,18.85
2023-04-24T01:03:32.830Z,17.92
2023-04-24T01:06:00.716Z,14.75
2023-04-24T01:08:29.344Z,20.23
2023-04-24T01:10:58.612Z,15.95
2023-04-24T01:13:26.170Z,18.33
2023-04-24T01:15:53.429Z,15.32
2023-04-24T01:18:22.247Z,17.38
2023-04-24T01:20:54.258Z,15.40
2023-04-24T01:23:21.393Z,13.30
2023-04-24T01:25:50.480Z,17.13
2023-04-24T01:28:18.271Z,17.98
2023-04-24T01:30:45.671Z,17.50
2023-04-24T01:33:13.103Z,18.05
2023-04-24T01:35:40.429Z,18.63
2023-04-24T01:38:07.701Z,16.85
2023-04-24T01:40:35.515Z,17.83
2023-04-24T01:43:03.882Z,15.50
2023-04-24T01:45:31.134Z,17.08
2023-04-24T01:47:58.606Z,19.38
2023-04-24T01:50:25.904Z,15.52
2023-04-24T01:52:53.358Z,16.17
2023-04-24T01:55:20.782Z,15.43
2023-04-24T01:57:48.165Z,14.93
2023-04-24T02:00:15.542Z,14.57
2023-04-24T02:02:45.640Z,14.63
2023-04-24T02:05:14.666Z,14.77
2023-04-24T02:07:41.843Z,14.57
2023-04-24T02:10:10.699Z,15.00
2023-04-24T02:12:42.857Z,16.20
2023-04-24T02:15:10.593Z,15.93
2023-04-24T02:17:38.418Z,17.38
2023-04-24T02:20:08.858Z,17.85
2023-04-24T02:22:36.121Z,16.73
2023-04-24T02:25:04.060Z,15.10
2023-04-24T02:27:33.074Z,14.32
2023-04-24T02:30:00.204Z,15.32
2023-04-24T02:32:27.388Z,15.45
2023-04-24T02:34:54.545Z,15.13
2023-04-24T02:37:21.721Z,14.25
2023-04-24T02:39:49.108Z,15.38
2023-04-24T02:42:16.645Z,15.57
2023-04-24T02:44:43.895Z,15.30
2023-04-24T02:47:11.078Z,17.85
2023-04-24T02:49:38.187Z,15.88
2023-04-24T02:52:05.889Z,18.00
2023-04-24T02:54:33.081Z,15.65
2023-04-24T02:57:00.193Z,16.42
2023-04-24T02:59:28.298Z,16.17
2023-04-24T03:01:55.776Z,14.90
2023-04-24T03:04:23.640Z,13.60
2023-04-24T03:06:53.945Z,14.30
2023-04-24T03:09:21.925Z,14.77
2023-04-24T03:11:50.428Z,13.98
2023-04-24T03:14:18.170Z,12.85
2023-04-24T03:16:45.716Z,14.95
2023-04-24T03:19:13.433Z,15.68
2023-04-24T03:21:52.134Z,15.85
2023-04-24T03:24:19.286Z,15.68
2023-04-24T03:26:46.453Z,16.08
2023-04-24T03:29:30.234Z,12.67
2023-04-24T03:31:58.301Z,13.45
2023-04-24T03:34:25.988Z,14.65
2023-04-24T03:36:53.850Z,13.15
2023-04-24T03:39:21.847Z,13.35
2023-04-24T03:41:54.538Z,13.90
2023-04-24T03:44:27.144Z,14.98
2023-04-24T03:46:54.620Z,16.33
2023-04-24T03:49:23.822Z,15.50
2023-04-24T03:51:51.749Z,14.20
2023-04-24T03:54:23.086Z,17.80
2023-04-24T03:56:52.085Z,13.52
2023-04-24T03:59:19.407Z,14.18
2023-04-24T04:01:51.830Z,15.77
2023-04-24T04:04:19.119Z,14.15
2023-04-24T04:06:47.534Z,13.25
2023-04-24T04:09:15.301Z,14.18
2023-04-24T04:11:42.492Z,15.77
2023-04-24T04:14:09.654Z,14.02
2023-04-24T04:16:40.621Z,15.85
2023-04-24T04:19:09.114Z,15.40
2023-04-24T04:21:36.475Z,13.52
2023-04-24T04:24:25.266Z,13.38
2023-04-24T04:26:53.397Z,15.07
2023-04-24T04:29:27.993Z,15.00
2023-04-24T04:31:56.342Z,13.10
2023-04-24T04:34:24.332Z,13.60
2023-04-24T04:36:52.701Z,12.65
2023-04-24T04:39:33.268Z,12.13
2023-04-24T04:42:03.201Z,12.45
2023-04-24T04:44:39.635Z,11.07
2023-04-24T04:47:08.624Z,11.55
2023-04-24T04:49:39.492Z,13.45
2023-04-24T04:52:11.646Z,13.63
2023-04-24T04:54:39.022Z,15.32
2023-04-24T04:57:06.945Z,16.38
2023-04-24T04:59:34.233Z,14.05
2023-04-24T05:02:07.027Z,12.77
2023-04-24T05:04:34.791Z,14.30
2023-04-24T05:07:02.326Z,13.52
2023-04-24T05:09:32.070Z,15.43
2023-04-24T05:12:04.018Z,14.95
2023-04-24T05:14:35.625Z,15.02
2023-04-24T05:17:04.004Z,15.25
2023-04-24T05:19:37.074Z,12.05
2023-04-24T05:24:35.100Z,14.55
2023-04-24T05:27:11.873Z,13.73
2023-04-24T05:29:41.543Z,13.90
2023-04-24T05:32:09.961Z,12.95
2023-04-24T05:34:37.839Z,15.20
2023-04-24T05:37:09.154Z,14.10
2023-04-24T05:39:37.079Z,16.03
2023-04-24T05:42:05.810Z,14.05
2023-04-24T05:44:33.128Z,13.45
2023-04-24T05:47:00.592Z,13.55
2023-04-24T05:49:28.084Z,15.10
2023-04-24T05:51:55.856Z,13.77
2023-04-24T05:54:23.371Z,13.35
2023-04-24T05:56:51.783Z,13.43
2023-04-24T05:59:28.752Z,14.85
2023-04-24T06:01:55.951Z,12.80
2023-04-24T06:04:25.704Z,14.80
2023-04-24T06:06:56.890Z,12.82
2023-04-24T06:09:24.414Z,13.52
2023-04-24T06:11:54.852Z,12.52
2023-04-24T06:14:25.763Z,15.05
2023-04-24T06:17:32.288Z,11.23
2023-04-24T06:19:59.953Z,13.02
2023-04-24T06:22:27.080Z,11.75
2023-04-24T06:24:54.239Z,10.80
2023-04-24T06:27:21.390Z,13.38
2023-04-24T06:29:55.302Z,12.90
2023-04-24T06:32:24.454Z,13.68
2023-04-24T06:34:54.775Z,10.63
2023-04-24T06:37:22.681Z,11.63
2023-04-24T06:39:51.793Z,8.52
2023-04-24T06:42:19.077Z,7.43
2023-04-24T06:44:46.538Z,7.15
2023-04-24T06:47:14.727Z,7.18
2023-04-24T06:49:42.116Z,5.85
2023-04-24T06:52:09.846Z,6.78
2023-04-24T06:54:36.940Z,6.75
2023-04-24T06:57:04.652Z,6.45
2023-04-24T06:59:31.872Z,6.13
2023-04-24T07:01:59.207Z,6.05
2023-04-24T07:04:26.701Z,5.63
2023-04-24T07:06:56.956Z,4.95
2023-04-24T07:09:24.959Z,4.65
2023-04-24T07:11:52.905Z,3.75
2023-04-24T07:14:20.369Z,4.07
2023-04-24T07:16:47.731Z,3.50
2023-04-24T07:19:15.058Z,3.97
2023-04-24T07:21:42.353Z,3.97
2023-04-24T07:24:13.936Z,4.03
2023-04-24T07:26:41.320Z,3.35
2023-04-24T07:29:09.032Z,3.88
2023-04-24T07:31:36.382Z,3.17
2023-04-24T07:34:03.600Z,3.58
2023-04-24T07:36:30.803Z,3.28
2023-04-24T07:38:58.105Z,3.20
2023-04-24T07:41:25.651Z,3.40
2023-04-24T07:43:54.759Z,3.50
2023-04-24T07:46:22.353Z,3.05
2023-04-24T07:48:58.554Z,3.35
2023-04-24T07:51:29.332Z,3.33
2023-04-24T07:53:56.739Z,3.35
2023-04-24T07:56:24.085Z,3.90
2023-04-24T07:58:51.792Z,2.90
2023-04-24T08:01:19.038Z,3.42
2023-04-24T08:03:46.417Z,3.35
2023-04-24T08:06:13.757Z,2.90
2023-04-24T08:08:40.891Z,2.25
2023-04-24T08:11:08.099Z,2.70
2023-04-24T08:13:35.261Z,3.70
2023-04-24T08:16:02.642Z,3.40
2023-04-24T08:18:29.917Z,4.53
2023-04-24T08:21:02.242Z,3.50
2023-04-24T08:25:58.873Z,3.60
2023-04-24T08:28:26.945Z,2.85
2023-04-24T08:30:55.917Z,3.55
2023-04-24T08:33:24.256Z,3.97
2023-04-24T08:35:51.792Z,3.72
2023-04-24T08:38:19.009Z,3.90
2023-04-24T08:40:49.233Z,3.22
2023-04-24T08:43:17.485Z,3.53
2023-04-24T08:45:45.036Z,3.30
2023-04-24T08:48:23.412Z,4.53
2023-04-24T08:50:52.474Z,3.70
2023-04-24T08:53:20.962Z,3.55
2023-04-24T08:55:49.559Z,4.40
2023-04-24T08:58:18.937Z,4.53
2023-04-24T09:00:48.863Z,3.60
2023-04-24T09:03:17.692Z,4.22
2023-04-24T09:05:48.853Z,3.67
2023-04-24T09:08:18.625Z,3.90
2023-04-24T09:10:45.957Z,4.28
2023-04-24T09:13:13.211Z,3.75
2023-04-24T09:15:42.131Z,4.80
2023-04-24T09:18:09.566Z,3.92
2023-04-24T09:21:08.756Z,4.28
2023-04-24T09:23:36.203Z,4.38
2023-04-24T09:26:06.127Z,3.67
2023-04-24T09:28:39.030Z,3.88
2023-04-24T09:31:19.501Z,3.78
2023-04-24T09:34:02.919Z,3.22
2023-04-24T09:36:34.339Z,3.88
2023-04-24T09:39:03.103Z,4.78
2023-04-24T09:41:30.434Z,5.10
2023-04-24T09:43:59.014Z,4.80
2023-04-24T09:46:32.916Z,4.75
2023-04-24T09:49:10.716Z,3.60
2023-04-24T09:51:38.905Z,3.83
2023-04-24T09:54:17.216Z,3.97
2023-04-24T09:56:46.408Z,4.57
2023-04-24T09:59:23.602Z,3.58
2023-04-24T10:01:51.834Z,4.05
2023-04-24T10:04:25.591Z,4.85
2023-04-24T10:06:55.095Z,4.65
2023-04-24T10:09:27.449Z,3.72
2023-04-24T10:11:56.092Z,3.45
2023-04-24T10:14:24.956Z,3.75
2023-04-24T10:16:55.175Z,4.03
2023-04-24T10:19:24.011Z,3.40
2023-04-24T10:21:51.231Z,3.72
2023-04-24T10:24:22.290Z,3.55
2023-04-24T10:26:49.849Z,4.55
2023-04-24T10:29:19.351Z,4.40
2023-04-24T10:31:48.112Z,3.08
2023-04-24T10:34:17.916Z,3.80
2023-04-24T10:36:51.995Z,3.58
2023-04-24T10:39:20.828Z,4.65
2023-04-24T10:41:58.581Z,3.53
2023-04-24T10:44:26.251Z,3.92
2023-04-24T10:46:57.490Z,3.10
2023-04-24T10:49:32.499Z,5.03
2023-04-24T10:52:07.390Z,4.45
2023-04-24T10:54:42.158Z,4.05
2023-04-24T10:57:24.100Z,4.28
2023-04-24T11:00:10.926Z,5.07
2023-04-24T11:02:39.776Z,3.90
2023-04-24T11:05:08.146Z,5.72
2023-04-24T11:08:13.542Z,4.43
2023-04-24T11:10:45.055Z,4.93
2023-04-24T11:13:15.209Z,4.70
2023-04-24T11:15:43.931Z,4.93
2023-04-24T11:18:16.489Z,4.30
2023-04-24T11:20:45.034Z,4.25
2023-04-24T11:23:14.196Z,4.47
2023-04-24T11:25:43.024Z,5.22
2023-04-24T11:28:17.357Z,4.50
2023-04-24T11:30:44.558Z,4.07
2023-04-24T11:33:12.353Z,5.03
2023-04-24T11:35:42.736Z,5.03
2023-04-24T11:38:24.223Z,5.30
2023-04-24T11:40:53.271Z,5.85
2023-04-24T11:43:21.186Z,4.90
2023-04-24T11:45:51.836Z,5.00
2023-04-24T11:48:24.221Z,5.70
2023-04-24T11:50:52.144Z,6.05
2023-04-24T11:53:22.929Z,5.50
2023-04-24T11:55:50.309Z,5.53
2023-04-24T11:58:23.098Z,5.53
2023-04-24T12:00:58.904Z,5.88
2023-04-24T12:03:26.454Z,4.78
2023-04-24T12:05:54.283Z,5.50
2023-04-24T12:08:30.760Z,4.80
2023-04-24T12:10:58.076Z,5.10
2023-04-24T12:13:27.046Z,5.28
2023-04-24T12:15:54.664Z,6.32
2023-04-24T12:18:25.605Z,5.13
2023-04-24T12:20:52.994Z,6.10
2023-04-24T12:23:38.862Z,6.55
2023-04-24T12:26:06.411Z,5.95
2023-04-24T12:28:39.081Z,5.30
2023-04-24T12:31:07.911Z,5.03
2023-04-24T12:33:36.387Z,6.00
2023-04-24T12:36:04.347Z,6.57
2023-04-24T12:38:31.569Z,5.15
2023-04-24T12:41:12.842Z,5.53
2023-04-24T12:43:51.573Z,6.28
2023-04-24T12:46:19.984Z,6.28
2023-04-24T12:48:49.076Z,6.30
2023-04-24T12:51:16.205Z,5.03
2023-04-24T12:53:43.690Z,5.97
2023-04-24T12:56:11.402Z,5.75
2023-04-24T12:58:38.638Z,5.57
2023-04-24T13:01:06.034Z,5.97
2023-04-24T13:03:33.607Z,6.32
2023-04-24T13:06:01.057Z,6.32
2023-04-24T13:08:28.248Z,4.50
2023-04-24T13:10:55.523Z,5.55
2023-04-24T13:13:22.911Z,4.97
2023-04-24T13:15:50.068Z,4.82
2023-04-24T13:18:17.255Z,5.72
2023-04-24T13:20:45.542Z,5.03
2023-04-24T13:23:12.895Z,4.70
2023-04-24T13:25:40.268Z,4.90
2023-04-24T13:28:07.814Z,5.20
2023-04-24T13:30:35.577Z,5.93
2023-04-24T13:33:02.852Z,4.70
2023-04-24T13:35:30.226Z,4.65
2023-04-24T13:37:57.430Z,4.82
2023-04-24T13:40:24.854Z,4.80
2023-04-24T13:42:52.114Z,4.60
2023-04-24T13:45:25.206Z,4.65
2023-04-24T13:47:55.079Z,4.72
2023-04-24T13:50:22.695Z,5.47
2023-04-24T13:52:50.414Z,4.50
2023-04-24T13:55:17.702Z,4.85
2023-04-24T13:57:45.037Z,5.03
2023-04-24T14:00:12.735Z,4.53
2023-04-24T14:02:40.376Z,4.00
2023-04-24T14:05:08.176Z,5.10
2023-04-24T14:07:35.351Z,3.75
2023-04-24T14:10:02.753Z,4.45
2023-04-24T14:12:30.053Z,4.80
2023-04-24T14:14:57.270Z,5.60
2023-04-24T14:17:24.714Z,4.70
2023-04-24T14:19:53.112Z,4.70
2023-04-24T14:22:20.380Z,4.10
2023-04-24T14:24:47.520Z,4.97
2023-04-24T14:27:15.019Z,4.40
2023-04-24T14:29:42.198Z,3.90
2023-04-24T14:32:10.089Z,4.28
2023-04-24T14:34:37.678Z,4.78
2023-04-24T14:37:07.191Z,4.88
2023-04-24T14:39:34.416Z,4.53
2023-04-24T14:42:02.503Z,4.32
2023-04-24T14:44:29.712Z,4.70
2023-04-24T14:46:56.844Z,4.53
2023-04-24T14:49:25.109Z,4.45
2023-04-24T14:51:52.438Z,3.58
2023-04-24T14:54:20.723Z,3.40
2023-04-24T14:56:48.302Z,3.80
2023-04-24T14:59:15.802Z,4.07
2023-04-24T15:01:43.283Z,3.92
2023-04-24T15:04:11.166Z,3.92
2023-04-24T15:06:38.603Z,3.75
2023-04-24T15:09:05.855Z,4.50
2023-04-24T15:11:33.517Z,3.78
2023-04-24T15:14:00.709Z,3.42
2023-04-24T15:16:28.074Z,4.10
2023-04-24T15:18:55.435Z,4.55
2023-04-24T15:21:22.691Z,2.78
2023-04-24T15:23:49.985Z,2.90
2023-04-24T15:26:17.288Z,3.33
2023-04-24T15:28:44.524Z,4.10
2023-04-24T15:31:11.726Z,3.30
2023-04-24T15:33:39.049Z,3.45
2023-04-24T15:36:06.357Z,3.15
2023-04-24T15:38:33.632Z,3.60
2023-04-24T15:41:00.836Z,3.25
2023-04-24T15:43:30.850Z,3.10
2023-04-24T15:45:58.675Z,3.35
2023-04-24T15:48:26.189Z,2.78
2023-04-24T15:50:53.356Z,3.28
2023-04-24T15:53:22.696Z,3.58
2023-04-24T15:55:53.824Z,4.15
2023-04-24T15:58:21.749Z,3.53
2023-04-24T16:00:49.361Z,3.40
2023-04-24T16:03:16.743Z,2.88
2023-04-24T16:05:44.017Z,3.13
2023-04-24T16:08:11.177Z,3.35
2023-04-24T16:10:38.354Z,2.97
2023-04-24T16:13:06.502Z,2.90
2023-04-24T16:15:34.751Z,3.72
2023-04-24T16:18:02.058Z,3.53
2023-04-24T16:20:29.254Z,3.22
2023-04-24T16:22:56.426Z,3.50
2023-04-24T16:25:23.613Z,2.50
2023-04-24T16:27:51.356Z,3.05
2023-04-24T16:30:19.716Z,3.90
2023-04-24T16:32:47.053Z,3.10
2023-04-24T16:35:14.375Z,3.42
2023-04-24T16:37:41.760Z,2.88
2023-04-24T16:40:11.083Z,2.80
2023-04-24T16:42:39.117Z,2.65
2023-04-24T16:45:07.148Z,2.58
2023-04-24T16:47:34.517Z,2.25
2023-04-24T16:50:01.796Z,3.25
2023-04-24T16:52:29.025Z,2.30
2023-04-24T16:54:56.223Z,1.70
2023-04-24T16:57:23.496Z,2.08
2023-04-24T16:59:51.075Z,2.53
2023-04-24T17:02:18.306Z,3.03
2023-04-24T17:04:45.689Z,2.85
2023-04-24T17:07:13.501Z,2.83
2023-04-24T17:09:40.779Z,3.03
2023-04-24T17:12:08.474Z,3.10
2023-04-24T17:14:35.707Z,3.22
2023-04-24T17:17:03.188Z,3.20
2023-04-24T17:19:30.517Z,3.97
2023-04-24T17:21:58.205Z,3.05
2023-04-24T17:24:25.538Z,3.50
2023-04-24T17:26:54.474Z,3.17
2023-04-24T17:29:23.902Z,3.13
2023-04-24T17:31:52.053Z,3.80
2023-04-24T17:34:19.289Z,4.00
2023-04-24T17:36:46.504Z,3.83
2023-04-24T17:39:14.084Z,4.15
2023-04-24T17:41:41.270Z,4.97
2023-04-24T17:44:08.859Z,3.70
2023-04-24T17:46:36.327Z,4.22
2023-04-24T17:49:03.826Z,3.60
2023-04-24T17:51:30.918Z,5.22
2023-04-24T17:53:58.780Z,4.38
2023-04-24T17:56:26.405Z,4.38
2023-04-24T17:58:54.012Z,4.82
2023-04-24T18:01:21.788Z,4.00
2023-04-24T18:03:49.253Z,4.75
2023-04-24T18:06:17.753Z,4.75
2023-04-24T18:08:45.008Z,5.63
2023-04-24T18:11:12.478Z,5.32
2023-04-24T18:13:41.389Z,5.60
2023-04-24T18:16:08.736Z,4.50
2023-04-24T18:18:36.564Z,4.50
2023-04-24T18:21:04.077Z,4.70
2023-04-24T18:23:31.364Z,4.97
2023-04-24T18:25:58.649Z,6.38
2023-04-24T18:28:25.823Z,6.13
2023-04-24T18:30:53.056Z,5.70
2023-04-24T18:33:20.261Z,7.07
2023-04-24T18:35:51.308Z,6.38
2023-04-24T18:38:18.575Z,6.22
2023-04-24T18:40:45.937Z,7.18
2023-04-24T18:43:13.141Z,6.57
2023-04-24T18:45:40.330Z,6.03
2023-04-24T18:48:07.741Z,6.63
2023-04-24T18:50:35.925Z,6.32
2023-04-24T18:53:03.308Z,7.43
2023-04-24T18:55:32.367Z,6.80
2023-04-24T18:57:59.642Z,6.57
2023-04-24T19:00:27.051Z,6.15
2023-04-24T19:02:55.234Z,7.30
2023-04-24T19:05:22.412Z,6.03
2023-04-24T19:07:49.615Z,6.75
2023-04-24T19:10:16.948Z,7.60
2023-04-24T19:12:44.272Z,6.93
2023-04-24T19:15:11.993Z,6.55
2023-04-24T19:17:39.507Z,7.13
2023-04-24T19:20:07.445Z,7.22
2023-04-24T19:22:34.981Z,6.20
2023-04-24T19:25:02.346Z,5.55
2023-04-24T19:27:29.964Z,5.85
2023-04-24T19:29:57.307Z,5.72
2023-04-24T19:32:24.646Z,5.57
2023-04-24T19:34:51.942Z,5.82
2023-04-24T19:37:19.297Z,4.97
2023-04-24T19:39:46.660Z,5.15
2023-04-24T19:42:13.834Z,5.43
2023-04-24T19:44:41.098Z,5.38
2023-04-24T19:47:08.619Z,4.78
2023-04-24T19:49:35.989Z,4.65
2023-04-24T19:52:03.258Z,5.57
2023-04-24T19:54:30.699Z,4.72
2023-04-24T19:56:58.262Z,5.53
2023-04-24T19:59:26.074Z,5.90
2023-04-24T20:01:54.075Z,5.22
2023-04-24T20:04:23.553Z,5.22
2023-04-24T20:06:50.935Z,5.68
2023-04-24T20:09:18.125Z,5.38
2023-04-24T20:11:47.021Z,4.50
2023-04-24T20:14:14.369Z,5.22
2023-04-24T20:16:41.830Z,5.40
2023-04-24T20:19:08.994Z,6.35
2023-04-24T20:21:36.276Z,5.15
2023-04-24T20:24:04.500Z,5.50
2023-04-24T20:26:31.767Z,4.82
2023-04-24T20:28:59.156Z,5.82
2023-04-24T20:31:26.693Z,4.85
2023-04-24T20:33:53.959Z,5.25
2023-04-24T20:36:21.123Z,4.78
2023-04-24T20:38:48.934Z,5.82
2023-04-24T20:41:16.270Z,5.97
2023-04-24T20:43:43.731Z,6.35
2023-04-24T20:46:11.415Z,5.03
2023-04-24T20:48:38.746Z,4.75
2023-04-24T20:51:06.336Z,4.65
2023-04-24T20:53:33.586Z,4.20
2023-04-24T20:56:00.946Z,5.00
2023-04-24T20:58:28.248Z,6.43
2023-04-24T21:00:55.409Z,5.78
2023-04-24T21:03:22.919Z,5.03
2023-04-24T21:05:52.731Z,4.85
2023-04-24T21:08:19.835Z,5.30
2023-04-24T21:10:47.111Z,5.88
2023-04-24T21:13:14.526Z,6.03
2023-04-24T21:15:42.148Z,4.38
2023-04-24T21:18:09.783Z,3.80
2023-04-24T21:20:37.283Z,3.92
2023-04-24T21:23:04.991Z,3.75
2023-04-24T21:25:32.402Z,4.05
2023-04-24T21:27:59.878Z,3.70
2023-04-24T21:30:27.243Z,4.05
2023-04-24T21:32:54.625Z,5.13
2023-04-24T21:35:21.973Z,3.42
2023-04-24T21:37:49.232Z,5.07
2023-04-24T21:40:16.752Z,3.70
2023-04-24T21:42:44.126Z,4.60
2023-04-24T21:45:11.843Z,3.33
2023-04-24T21:47:39.463Z,3.53
2023-04-24T21:50:07.254Z,3.40
2023-04-24T21:52:34.445Z,3.63
2023-04-24T21:55:01.644Z,3.92
2023-04-24T21:57:29.869Z,3.83
2023-04-24T21:59:57.155Z,3.53
2023-04-24T22:02:24.556Z,3.88
2023-04-24T22:04:53.309Z,4.47
2023-04-24T22:07:20.894Z,4.28
2023-04-24T22:09:48.102Z,4.35
2023-04-24T22:12:15.299Z,4.47
2023-04-24T22:14:42.430Z,4.35
2023-04-24T22:17:10.509Z,3.58
2023-04-24T22:19:38.050Z,4.10
2023-04-24T22:22:05.380Z,3.80
2023-04-24T22:24:32.586Z,4.25
2023-04-24T22:26:59.843Z,3.58
2023-04-24T22:29:27.071Z,3.50
2023-04-24T22:31:56.812Z,4.38
2023-04-24T22:34:24.446Z,3.72
2023-04-24T22:36:51.652Z,4.03
2023-04-24T22:39:19.757Z,3.38
2023-04-24T22:41:47.229Z,3.80
2023-04-24T22:44:14.687Z,4.28
2023-04-24T22:46:41.907Z,4.47
2023-04-24T22:49:09.193Z,3.20
2023-04-24T22:51:36.426Z,3.83
2023-04-24T22:54:05.018Z,4.18
2023-04-24T22:56:32.437Z,3.92
2023-04-24T22:58:59.959Z,4.22
2023-04-24T23:01:27.553Z,4.30
2023-04-24T23:03:55.133Z,3.90
2023-04-24T23:06:22.416Z,4.82
2023-04-24T23:08:49.812Z,4.40
2023-04-24T23:11:17.615Z,4.75
2023-04-24T23:13:44.891Z,4.70
2023-04-24T23:16:12.191Z,4.40
2023-04-24T23:18:39.382Z,4.18
2023-04-24T23:21:06.713Z,4.70
2023-04-24T23:23:33.990Z,3.33
2023-04-24T23:26:01.578Z,4.70
2023-04-24T23:28:28.858Z,4.72
2023-04-24T23:30:56.029Z,4.65
2023-04-24T23:33:23.305Z,3.78
2023-04-24T23:35:50.554Z,4.43
2023-04-24T23:38:17.794Z,4.10
2023-04-24T23:40:44.992Z,4.35
2023-04-24T23:43:12.748Z,3.78
2023-04-24T23:45:40.701Z,3.90
2023-04-24T23:48:07.985Z,3.30
2023-04-24T23:50:35.339Z,3.30
2023-04-24T23:53:02.816Z,3.72
2023-04-24T23:55:30.025Z,3.88
2023-04-24T23:57:57.195Z,4.00
